sensor_id;sensor_type;location;lat;lon;timestamp;pressure;altitude;pressure_sealevel;temperature;humidity
40872;BME280;26591;43.264;26.940;2023-07-20T00:02:15;98375.47;;;26.91;52.75
40872;BME280;26591;43.264;26.940;2023-07-20T00:04:40;98374.69;;;26.91;52.13
40872;BME280;26591;43.264;26.940;2023-07-20T00:07:06;98380.47;;;26.84;51.92
40872;BME280;26591;43.264;26.940;2023-07-20T00:09:31;98376.38;;;26.87;52.67
40872;BME280;26591;43.264;26.940;2023-07-20T00:11:57;98372.09;;;26.80;52.39
40872;BME280;26591;43.264;26.940;2023-07-20T00:14:25;98373.66;;;26.87;52.76
40872;BME280;26591;43.264;26.940;2023-07-20T00:16:51;98376.47;;;26.76;53.07
40872;BME280;26591;43.264;26.940;2023-07-20T00:19:26;98374.22;;;26.59;52.67
40872;BME280;26591;43.264;26.940;2023-07-20T00:21:53;98364.72;;;26.57;53.16
40872;BME280;26591;43.264;26.940;2023-07-20T00:24:20;98363.00;;;26.42;53.45
40872;BME280;26591;43.264;26.940;2023-07-20T00:26:45;98360.84;;;26.39;54.03
40872;BME280;26591;43.264;26.940;2023-07-20T00:29:11;98363.03;;;26.37;54.19
40872;BME280;26591;43.264;26.940;2023-07-20T00:31:37;98362.13;;;26.46;53.04
40872;BME280;26591;43.264;26.940;2023-07-20T00:34:03;98384.88;;;26.50;53.67
40872;BME280;26591;43.264;26.940;2023-07-20T00:36:29;98407.72;;;26.44;53.84
40872;BME280;26591;43.264;26.940;2023-07-20T00:38:54;98453.50;;;26.22;54.02
40872;BME280;26591;43.264;26.940;2023-07-20T00:41:20;98459.94;;;25.91;53.70
40872;BME280;26591;43.264;26.940;2023-07-20T00:43:46;98452.22;;;26.14;52.22
40872;BME280;26591;43.264;26.940;2023-07-20T00:46:12;98514.28;;;26.50;50.58
40872;BME280;26591;43.264;26.940;2023-07-20T00:48:37;98507.25;;;26.78;50.35
40872;BME280;26591;43.264;26.940;2023-07-20T00:51:04;98478.97;;;26.55;52.60
40872;BME280;26591;43.264;26.940;2023-07-20T00:53:30;98474.91;;;26.23;54.05
40872;BME280;26591;43.264;26.940;2023-07-20T00:55:55;98482.19;;;25.88;55.02
40872;BME280;26591;43.264;26.940;2023-07-20T00:58:22;98488.41;;;25.88;55.61
40872;BME280;26591;43.264;26.940;2023-07-20T01:00:48;98468.53;;;25.53;56.41
40872;BME280;26591;43.264;26.940;2023-07-20T01:03:14;98472.69;;;25.30;58.07
40872;BME280;26591;43.264;26.940;2023-07-20T01:14:29;98453.88;;;24.99;60.03
40872;BME280;26591;43.264;26.940;2023-07-20T01:16:55;98446.28;;;24.96;60.06
40872;BME280;26591;43.264;26.940;2023-07-20T01:19:20;98446.03;;;24.92;60.46
40872;BME280;26591;43.264;26.940;2023-07-20T01:30:32;98399.75;;;24.89;61.53
40872;BME280;26591;43.264;26.940;2023-07-20T01:33:04;98403.06;;;24.70;61.45
40872;BME280;26591;43.264;26.940;2023-07-20T01:35:32;98388.16;;;24.78;61.31
40872;BME280;26591;43.264;26.940;2023-07-20T01:37:59;98391.13;;;24.71;61.59
40872;BME280;26591;43.264;26.940;2023-07-20T01:40:25;98400.34;;;24.75;61.44
40872;BME280;26591;43.264;26.940;2023-07-20T01:42:51;98406.53;;;24.86;61.81
40872;BME280;26591;43.264;26.940;2023-07-20T01:45:17;98405.75;;;24.75;62.12
40872;BME280;26591;43.264;26.940;2023-07-20T01:47:43;98397.66;;;24.70;62.17
40872;BME280;26591;43.264;26.940;2023-07-20T01:50:09;98401.13;;;24.65;62.28
40872;BME280;26591;43.264;26.940;2023-07-20T01:52:35;98388.19;;;24.57;62.35
40872;BME280;26591;43.264;26.940;2023-07-20T01:55:00;98399.28;;;24.50;62.59
40872;BME280;26591;43.264;26.940;2023-07-20T01:57:26;98401.72;;;24.52;61.53
40872;BME280;26591;43.264;26.940;2023-07-20T01:59:52;98399.00;;;24.57;62.01
40872;BME280;26591;43.264;26.940;2023-07-20T02:02:18;98387.34;;;24.62;60.98
40872;BME280;26591;43.264;26.940;2023-07-20T02:04:43;98393.59;;;24.57;61.90
40872;BME280;26591;43.264;26.940;2023-07-20T02:07:09;98368.97;;;24.59;61.19
40872;BME280;26591;43.264;26.940;2023-07-20T02:09:35;98384.94;;;24.55;61.12
40872;BME280;26591;43.264;26.940;2023-07-20T02:12:00;98350.84;;;24.70;59.85
40872;BME280;26591;43.264;26.940;2023-07-20T02:14:26;98366.00;;;24.71;59.85
40872;BME280;26591;43.264;26.940;2023-07-20T02:16:51;98375.06;;;25.06;58.73
40872;BME280;26591;43.264;26.940;2023-07-20T02:19:18;98371.28;;;25.02;57.70
40872;BME280;26591;43.264;26.940;2023-07-20T02:21:43;98369.78;;;25.30;56.92
40872;BME280;26591;43.264;26.940;2023-07-20T02:24:09;98360.09;;;25.19;58.96
40872;BME280;26591;43.264;26.940;2023-07-20T02:26:35;98343.25;;;24.66;60.30
40872;BME280;26591;43.264;26.940;2023-07-20T02:29:00;98335.94;;;24.72;60.78
40872;BME280;26591;43.264;26.940;2023-07-20T02:31:26;98332.19;;;24.63;61.14
40872;BME280;26591;43.264;26.940;2023-07-20T02:33:51;98310.13;;;24.25;61.31
40872;BME280;26591;43.264;26.940;2023-07-20T02:36:17;98296.09;;;24.02;61.40
40872;BME280;26591;43.264;26.940;2023-07-20T02:38:43;98277.22;;;23.97;61.52
40872;BME280;26591;43.264;26.940;2023-07-20T02:41:08;98239.88;;;23.93;61.52
40872;BME280;26591;43.264;26.940;2023-07-20T02:43:34;98200.97;;;23.95;61.74
40872;BME280;26591;43.264;26.940;2023-07-20T02:45:59;98198.75;;;24.17;60.84
40872;BME280;26591;43.264;26.940;2023-07-20T02:48:25;98194.78;;;24.60;59.47
40872;BME280;26591;43.264;26.940;2023-07-20T02:50:50;98230.94;;;24.85;58.60
40872;BME280;26591;43.264;26.940;2023-07-20T02:53:16;98237.78;;;25.11;55.06
40872;BME280;26591;43.264;26.940;2023-07-20T02:55:41;98231.81;;;24.70;58.08
40872;BME280;26591;43.264;26.940;2023-07-20T02:58:07;98228.13;;;24.40;59.16
40872;BME280;26591;43.264;26.940;2023-07-20T03:00:32;98234.25;;;24.61;58.71
40872;BME280;26591;43.264;26.940;2023-07-20T03:02:58;98234.25;;;25.16;57.64
40872;BME280;26591;43.264;26.940;2023-07-20T03:05:23;98214.84;;;25.43;57.29
40872;BME280;26591;43.264;26.940;2023-07-20T03:07:51;98203.84;;;25.59;58.08
40872;BME280;26591;43.264;26.940;2023-07-20T03:10:16;98216.69;;;25.48;57.80
40872;BME280;26591;43.264;26.940;2023-07-20T03:12:42;98234.41;;;25.65;57.56
40872;BME280;26591;43.264;26.940;2023-07-20T03:15:08;98248.91;;;26.03;56.28
40872;BME280;26591;43.264;26.940;2023-07-20T03:17:34;98244.25;;;25.85;56.50
40872;BME280;26591;43.264;26.940;2023-07-20T03:20:00;98237.59;;;25.72;56.59
40872;BME280;26591;43.264;26.940;2023-07-20T03:22:26;98259.75;;;25.79;56.57
40872;BME280;26591;43.264;26.940;2023-07-20T03:24:52;98254.50;;;26.17;55.83
40872;BME280;26591;43.264;26.940;2023-07-20T03:27:18;98252.19;;;26.30;55.49
40872;BME280;26591;43.264;26.940;2023-07-20T03:29:44;98243.50;;;26.52;55.24
40872;BME280;26591;43.264;26.940;2023-07-20T03:32:10;98231.63;;;26.48;55.07
40872;BME280;26591;43.264;26.940;2023-07-20T03:34:36;98221.75;;;26.14;56.26
40872;BME280;26591;43.264;26.940;2023-07-20T03:37:02;98224.81;;;26.02;56.47
40872;BME280;26591;43.264;26.940;2023-07-20T03:39:30;98231.50;;;26.15;55.76
40872;BME280;26591;43.264;26.940;2023-07-20T03:41:55;98250.34;;;25.71;57.54
40872;BME280;26591;43.264;26.940;2023-07-20T03:44:21;98248.66;;;25.01;59.13
40872;BME280;26591;43.264;26.940;2023-07-20T03:46:46;98262.41;;;24.60;60.44
40872;BME280;26591;43.264;26.940;2023-07-20T03:49:12;98272.38;;;25.20;58.51
40872;BME280;26591;43.264;26.940;2023-07-20T03:51:37;98279.56;;;25.74;58.28
40872;BME280;26591;43.264;26.940;2023-07-20T03:54:03;98275.81;;;26.29;57.30
40872;BME280;26591;43.264;26.940;2023-07-20T03:56:28;98274.72;;;26.98;55.46
40872;BME280;26591;43.264;26.940;2023-07-20T03:58:59;98273.00;;;27.74;53.41
40872;BME280;26591;43.264;26.940;2023-07-20T04:01:24;98276.53;;;28.35;52.35
40872;BME280;26591;43.264;26.940;2023-07-20T04:03:50;98283.81;;;29.04;50.16
40872;BME280;26591;43.264;26.940;2023-07-20T04:06:15;98300.25;;;29.50;48.98
40872;BME280;26591;43.264;26.940;2023-07-20T04:08:42;98303.75;;;29.50;48.22
40872;BME280;26591;43.264;26.940;2023-07-20T04:11:08;98311.47;;;29.48;48.08
40872;BME280;26591;43.264;26.940;2023-07-20T04:13:34;98338.31;;;29.41;48.23
40872;BME280;26591;43.264;26.940;2023-07-20T04:15:59;98311.81;;;29.19;48.84
40872;BME280;26591;43.264;26.940;2023-07-20T04:18:25;98340.03;;;29.37;48.26
40872;BME280;26591;43.264;26.940;2023-07-20T04:20:51;98331.06;;;29.22;48.37
40872;BME280;26591;43.264;26.940;2023-07-20T04:23:16;98337.09;;;29.33;48.47
40872;BME280;26591;43.264;26.940;2023-07-20T04:25:42;98352.22;;;28.75;49.60
40872;BME280;26591;43.264;26.940;2023-07-20T04:28:08;98347.72;;;28.84;49.29
40872;BME280;26591;43.264;26.940;2023-07-20T04:30:35;98366.53;;;28.53;49.55
40872;BME280;26591;43.264;26.940;2023-07-20T04:33:01;98361.03;;;28.11;50.61
40872;BME280;26591;43.264;26.940;2023-07-20T04:35:47;98362.66;;;27.60;52.04
40872;BME280;26591;43.264;26.940;2023-07-20T04:38:13;98378.50;;;27.52;52.50
40872;BME280;26591;43.264;26.940;2023-07-20T04:40:41;98395.47;;;27.63;51.91
40872;BME280;26591;43.264;26.940;2023-07-20T04:43:07;98388.75;;;27.94;51.32
40872;BME280;26591;43.264;26.940;2023-07-20T04:45:33;98396.16;;;28.07;51.18
40872;BME280;26591;43.264;26.940;2023-07-20T04:47:58;98393.91;;;27.95;51.09
40872;BME280;26591;43.264;26.940;2023-07-20T04:50:23;98379.31;;;27.72;51.54
40872;BME280;26591;43.264;26.940;2023-07-20T04:52:50;98377.50;;;27.48;52.48
40872;BME280;26591;43.264;26.940;2023-07-20T04:55:16;98390.25;;;27.48;52.24
40872;BME280;26591;43.264;26.940;2023-07-20T04:57:41;98384.03;;;27.47;52.62
40872;BME280;26591;43.264;26.940;2023-07-20T05:00:07;98374.38;;;27.36;52.89
40872;BME280;26591;43.264;26.940;2023-07-20T05:02:35;98395.69;;;27.48;52.22
40872;BME280;26591;43.264;26.940;2023-07-20T05:05:01;98404.69;;;27.43;52.61
40872;BME280;26591;43.264;26.940;2023-07-20T05:07:27;98419.81;;;27.30;52.95
40872;BME280;26591;43.264;26.940;2023-07-20T05:09:52;98410.88;;;27.30;53.24
40872;BME280;26591;43.264;26.940;2023-07-20T05:12:18;98416.03;;;27.07;53.91
40872;BME280;26591;43.264;26.940;2023-07-20T05:14:43;98422.97;;;26.94;53.91
40872;BME280;26591;43.264;26.940;2023-07-20T05:17:09;98433.16;;;26.83;54.57
40872;BME280;26591;43.264;26.940;2023-07-20T05:19:34;98426.09;;;26.77;54.25
40872;BME280;26591;43.264;26.940;2023-07-20T05:22:00;98426.41;;;26.75;54.78
40872;BME280;26591;43.264;26.940;2023-07-20T05:24:25;98432.66;;;26.76;54.05
40872;BME280;26591;43.264;26.940;2023-07-20T05:26:51;98442.94;;;26.79;53.69
40872;BME280;26591;43.264;26.940;2023-07-20T05:29:17;98449.50;;;26.73;53.39
40872;BME280;26591;43.264;26.940;2023-07-20T05:31:42;98449.78;;;26.47;54.07
40872;BME280;26591;43.264;26.940;2023-07-20T05:34:08;98437.03;;;26.08;55.75
40872;BME280;26591;43.264;26.940;2023-07-20T05:36:33;98431.63;;;26.08;55.71
40872;BME280;26591;43.264;26.940;2023-07-20T05:38:59;98409.16;;;26.02;55.79
40872;BME280;26591;43.264;26.940;2023-07-20T05:41:24;98422.91;;;25.76;56.71
40872;BME280;26591;43.264;26.940;2023-07-20T05:43:50;98424.00;;;26.10;57.72
40872;BME280;26591;43.264;26.940;2023-07-20T05:46:16;98415.56;;;26.16;58.12
40872;BME280;26591;43.264;26.940;2023-07-20T05:48:41;98433.53;;;26.42;58.07
40872;BME280;26591;43.264;26.940;2023-07-20T05:51:07;98432.75;;;26.65;58.07
40872;BME280;26591;43.264;26.940;2023-07-20T05:53:35;98419.88;;;26.76;58.62
40872;BME280;26591;43.264;26.940;2023-07-20T05:56:01;98425.28;;;26.52;59.35
40872;BME280;26591;43.264;26.940;2023-07-20T05:58:28;98409.50;;;26.30;59.23
40872;BME280;26591;43.264;26.940;2023-07-20T06:00:53;98416.44;;;26.12;59.69
40872;BME280;26591;43.264;26.940;2023-07-20T06:03:19;98415.78;;;25.85;60.24
40872;BME280;26591;43.264;26.940;2023-07-20T06:05:46;98428.47;;;25.95;61.21
40872;BME280;26591;43.264;26.940;2023-07-20T06:08:12;98440.09;;;26.35;62.39
40872;BME280;26591;43.264;26.940;2023-07-20T06:10:38;98444.38;;;26.42;61.44
40872;BME280;26591;43.264;26.940;2023-07-20T06:13:03;98425.09;;;26.43;60.26
40872;BME280;26591;43.264;26.940;2023-07-20T06:15:33;98432.56;;;26.86;59.07
40872;BME280;26591;43.264;26.940;2023-07-20T06:18:02;98424.69;;;27.09;58.00
40872;BME280;26591;43.264;26.940;2023-07-20T06:20:29;98431.47;;;27.11;57.55
40872;BME280;26591;43.264;26.940;2023-07-20T06:22:55;98435.63;;;27.04;59.04
40872;BME280;26591;43.264;26.940;2023-07-20T06:25:21;98424.94;;;27.13;59.12
40872;BME280;26591;43.264;26.940;2023-07-20T06:27:49;98421.34;;;27.17;58.38
40872;BME280;26591;43.264;26.940;2023-07-20T06:30:19;98420.69;;;27.25;56.98
40872;BME280;26591;43.264;26.940;2023-07-20T06:32:45;98417.94;;;27.06;57.57
40872;BME280;26591;43.264;26.940;2023-07-20T06:35:10;98413.47;;;27.16;59.85
40872;BME280;26591;43.264;26.940;2023-07-20T06:37:36;98409.09;;;27.96;59.15
40872;BME280;26591;43.264;26.940;2023-07-20T06:40:02;98396.38;;;28.58;54.72
40872;BME280;26591;43.264;26.940;2023-07-20T06:42:30;98401.84;;;28.72;52.64
40872;BME280;26591;43.264;26.940;2023-07-20T06:44:56;98415.81;;;29.49;51.41
40872;BME280;26591;43.264;26.940;2023-07-20T06:47:24;98417.66;;;29.76;50.35
40872;BME280;26591;43.264;26.940;2023-07-20T06:49:49;98417.81;;;30.17;49.67
40872;BME280;26591;43.264;26.940;2023-07-20T06:52:15;98432.69;;;30.65;49.45
40872;BME280;26591;43.264;26.940;2023-07-20T06:54:40;98435.69;;;31.44;48.64
40872;BME280;26591;43.264;26.940;2023-07-20T06:57:06;98426.56;;;31.92;47.52
40872;BME280;26591;43.264;26.940;2023-07-20T06:59:31;98433.97;;;31.74;46.50
40872;BME280;26591;43.264;26.940;2023-07-20T07:05:19;98442.25;;;32.48;46.43
40872;BME280;26591;43.264;26.940;2023-07-20T07:07:44;98433.38;;;33.29;45.48
40872;BME280;26591;43.264;26.940;2023-07-20T07:10:10;98440.69;;;33.16;44.04
40872;BME280;26591;43.264;26.940;2023-07-20T07:12:35;98443.69;;;33.53;42.91
40872;BME280;26591;43.264;26.940;2023-07-20T07:15:03;98439.03;;;33.96;42.01
40872;BME280;26591;43.264;26.940;2023-07-20T07:17:32;98444.41;;;34.38;40.37
40872;BME280;26591;43.264;26.940;2023-07-20T07:19:58;98440.03;;;34.59;40.51
40872;BME280;26591;43.264;26.940;2023-07-20T07:22:27;98440.47;;;34.48;39.45
40872;BME280;26591;43.264;26.940;2023-07-20T07:24:52;98425.75;;;34.32;39.37
40872;BME280;26591;43.264;26.940;2023-07-20T07:27:19;98435.34;;;33.92;40.60
40872;BME280;26591;43.264;26.940;2023-07-20T07:29:47;98424.38;;;34.26;38.62
40872;BME280;26591;43.264;26.940;2023-07-20T07:32:15;98428.19;;;34.00;38.07
40872;BME280;26591;43.264;26.940;2023-07-20T07:34:40;98423.28;;;33.84;37.81
40872;BME280;26591;43.264;26.940;2023-07-20T07:37:06;98430.53;;;33.46;38.78
40872;BME280;26591;43.264;26.940;2023-07-20T07:39:31;98422.69;;;34.00;37.74
40872;BME280;26591;43.264;26.940;2023-07-20T07:41:57;98428.84;;;34.30;37.54
40872;BME280;26591;43.264;26.940;2023-07-20T07:44:25;98425.25;;;34.17;38.42
40872;BME280;26591;43.264;26.940;2023-07-20T07:46:51;98417.28;;;33.91;37.38
40872;BME280;26591;43.264;26.940;2023-07-20T07:49:19;98427.50;;;34.03;38.03
40872;BME280;26591;43.264;26.940;2023-07-20T07:51:45;98423.63;;;34.04;38.19
40872;BME280;26591;43.264;26.940;2023-07-20T07:54:11;98428.59;;;33.68;38.49
40872;BME280;26591;43.264;26.940;2023-07-20T07:56:37;98421.44;;;33.55;39.10
40872;BME280;26591;43.264;26.940;2023-07-20T07:59:05;98428.22;;;33.27;38.92
40872;BME280;26591;43.264;26.940;2023-07-20T08:01:31;98425.16;;;32.99;39.40
40872;BME280;26591;43.264;26.940;2023-07-20T08:03:56;98419.72;;;33.20;39.72
40872;BME280;26591;43.264;26.940;2023-07-20T08:06:22;98417.31;;;32.50;40.18
40872;BME280;26591;43.264;26.940;2023-07-20T08:08:49;98413.66;;;32.28;40.76
40872;BME280;26591;43.264;26.940;2023-07-20T08:11:14;98405.16;;;32.60;40.72
40872;BME280;26591;43.264;26.940;2023-07-20T08:13:40;98417.31;;;32.89;39.51
40872;BME280;26591;43.264;26.940;2023-07-20T08:16:05;98406.38;;;33.10;39.66
40872;BME280;26591;43.264;26.940;2023-07-20T08:18:31;98404.91;;;33.63;38.17
40872;BME280;26591;43.264;26.940;2023-07-20T08:20:56;98401.78;;;34.07;38.61
40872;BME280;26591;43.264;26.940;2023-07-20T08:23:22;98411.97;;;33.22;38.74
40872;BME280;26591;43.264;26.940;2023-07-20T08:25:48;98415.25;;;33.15;38.91
40872;BME280;26591;43.264;26.940;2023-07-20T08:28:14;98409.75;;;33.45;38.71
40872;BME280;26591;43.264;26.940;2023-07-20T08:30:44;98417.16;;;33.66;38.10
40872;BME280;26591;43.264;26.940;2023-07-20T08:33:12;98410.72;;;33.62;38.72
40872;BME280;26591;43.264;26.940;2023-07-20T08:35:37;98418.81;;;33.58;38.64
40872;BME280;26591;43.264;26.940;2023-07-20T08:38:03;98420.50;;;33.72;38.65
40872;BME280;26591;43.264;26.940;2023-07-20T08:40:33;98415.06;;;33.84;38.07
40872;BME280;26591;43.264;26.940;2023-07-20T08:43:00;98406.03;;;34.05;38.17
40872;BME280;26591;43.264;26.940;2023-07-20T08:45:27;98409.81;;;34.13;38.66
40872;BME280;26591;43.264;26.940;2023-07-20T08:47:56;98414.31;;;34.76;37.15
40872;BME280;26591;43.264;26.940;2023-07-20T08:50:22;98414.84;;;34.57;38.10
40872;BME280;26591;43.264;26.940;2023-07-20T08:52:49;98409.63;;;33.75;38.30
40872;BME280;26591;43.264;26.940;2023-07-20T08:55:17;98408.81;;;33.41;39.67
40872;BME280;26591;43.264;26.940;2023-07-20T08:57:45;98417.97;;;33.67;39.09
40872;BME280;26591;43.264;26.940;2023-07-20T09:00:13;98417.34;;;33.82;38.54
40872;BME280;26591;43.264;26.940;2023-07-20T09:02:39;98413.00;;;34.02;38.08
40872;BME280;26591;43.264;26.940;2023-07-20T09:05:08;98408.59;;;33.89;38.82
40872;BME280;26591;43.264;26.940;2023-07-20T09:07:35;98414.16;;;34.14;38.71
40872;BME280;26591;43.264;26.940;2023-07-20T09:10:02;98399.94;;;33.78;38.95
40872;BME280;26591;43.264;26.940;2023-07-20T09:12:32;98411.72;;;33.78;39.58
40872;BME280;26591;43.264;26.940;2023-07-20T09:15:00;98401.59;;;33.37;39.34
40872;BME280;26591;43.264;26.940;2023-07-20T09:17:26;98406.84;;;33.42;40.72
40872;BME280;26591;43.264;26.940;2023-07-20T09:19:52;98402.97;;;33.43;39.58
40872;BME280;26591;43.264;26.940;2023-07-20T09:22:17;98409.00;;;33.36;39.25
40872;BME280;26591;43.264;26.940;2023-07-20T09:24:44;98405.31;;;33.53;39.36
40872;BME280;26591;43.264;26.940;2023-07-20T09:27:10;98410.00;;;33.74;38.77
40872;BME280;26591;43.264;26.940;2023-07-20T09:29:52;98405.50;;;33.69;38.68
40872;BME280;26591;43.264;26.940;2023-07-20T09:32:19;98402.22;;;33.76;39.00
40872;BME280;26591;43.264;26.940;2023-07-20T09:34:46;98390.84;;;34.20;38.54
40872;BME280;26591;43.264;26.940;2023-07-20T09:37:11;98400.72;;;34.33;37.99
40872;BME280;26591;43.264;26.940;2023-07-20T09:39:44;98391.38;;;34.13;37.97
40872;BME280;26591;43.264;26.940;2023-07-20T09:42:11;98383.50;;;34.12;38.43
40872;BME280;26591;43.264;26.940;2023-07-20T09:44:38;98392.53;;;34.12;38.84
40872;BME280;26591;43.264;26.940;2023-07-20T09:47:05;98393.47;;;34.16;39.43
40872;BME280;26591;43.264;26.940;2023-07-20T09:49:31;98394.00;;;34.43;39.28
40872;BME280;26591;43.264;26.940;2023-07-20T09:51:59;98379.41;;;34.18;39.50
40872;BME280;26591;43.264;26.940;2023-07-20T09:54:28;98379.19;;;34.23;39.41
40872;BME280;26591;43.264;26.940;2023-07-20T09:56:55;98377.44;;;34.77;38.22
40872;BME280;26591;43.264;26.940;2023-07-20T09:59:21;98371.78;;;34.86;38.56
40872;BME280;26591;43.264;26.940;2023-07-20T10:01:47;98367.91;;;34.87;38.48
40872;BME280;26591;43.264;26.940;2023-07-20T10:04:16;98367.13;;;34.74;38.42
40872;BME280;26591;43.264;26.940;2023-07-20T10:06:46;98375.13;;;34.79;38.99
40872;BME280;26591;43.264;26.940;2023-07-20T10:09:15;98369.50;;;34.75;38.30
40872;BME280;26591;43.264;26.940;2023-07-20T10:11:46;98358.19;;;35.02;38.67
40872;BME280;26591;43.264;26.940;2023-07-20T10:14:20;98355.09;;;35.03;38.59
40872;BME280;26591;43.264;26.940;2023-07-20T10:16:58;98358.06;;;35.10;37.49
40872;BME280;26591;43.264;26.940;2023-07-20T10:19:47;98360.78;;;34.86;39.01
40872;BME280;26591;43.264;26.940;2023-07-20T10:22:17;98354.63;;;34.89;38.17
40872;BME280;26591;43.264;26.940;2023-07-20T10:24:47;98359.91;;;35.06;38.05
40872;BME280;26591;43.264;26.940;2023-07-20T10:27:15;98357.94;;;35.19;37.22
40872;BME280;26591;43.264;26.940;2023-07-20T10:29:42;98343.75;;;35.46;37.02
40872;BME280;26591;43.264;26.940;2023-07-20T10:32:08;98347.25;;;35.18;37.42
40872;BME280;26591;43.264;26.940;2023-07-20T10:34:34;98339.56;;;35.23;36.76
40872;BME280;26591;43.264;26.940;2023-07-20T10:37:00;98328.66;;;35.39;36.77
40872;BME280;26591;43.264;26.940;2023-07-20T10:39:32;98323.06;;;35.23;36.88
40872;BME280;26591;43.264;26.940;2023-07-20T10:42:08;98303.06;;;35.10;36.78
40872;BME280;26591;43.264;26.940;2023-07-20T10:44:39;98304.72;;;34.74;37.10
40872;BME280;26591;43.264;26.940;2023-07-20T10:47:14;98289.91;;;35.44;36.84
40872;BME280;26591;43.264;26.940;2023-07-20T10:49:58;98293.56;;;35.49;36.47
40872;BME280;26591;43.264;26.940;2023-07-20T10:52:37;98286.66;;;35.55;36.22
40872;BME280;26591;43.264;26.940;2023-07-20T10:55:19;98281.34;;;35.62;36.01
40872;BME280;26591;43.264;26.940;2023-07-20T10:58:12;98288.03;;;35.77;35.82
40872;BME280;26591;43.264;26.940;2023-07-20T11:01:00;98280.34;;;36.15;35.11
40872;BME280;26591;43.264;26.940;2023-07-20T11:03:30;98286.78;;;35.90;35.60
40872;BME280;26591;43.264;26.940;2023-07-20T11:05:57;98265.78;;;36.30;35.03
40872;BME280;26591;43.264;26.940;2023-07-20T11:08:42;98277.16;;;36.13;34.90
40872;BME280;26591;43.264;26.940;2023-07-20T11:14:03;98283.91;;;36.31;35.16
40872;BME280;26591;43.264;26.940;2023-07-20T11:19:03;98277.56;;;36.63;33.53
40872;BME280;26591;43.264;26.940;2023-07-20T11:21:34;98267.94;;;36.73;33.44
40872;BME280;26591;43.264;26.940;2023-07-20T11:24:03;98277.16;;;36.45;33.67
40872;BME280;26591;43.264;26.940;2023-07-20T11:26:28;98278.38;;;36.47;33.90
40872;BME280;26591;43.264;26.940;2023-07-20T11:28:54;98273.84;;;36.55;32.93
40872;BME280;26591;43.264;26.940;2023-07-20T11:31:19;98268.13;;;36.64;32.90
40872;BME280;26591;43.264;26.940;2023-07-20T11:33:46;98262.22;;;37.01;32.00
40872;BME280;26591;43.264;26.940;2023-07-20T11:36:12;98255.31;;;36.91;32.40
40872;BME280;26591;43.264;26.940;2023-07-20T11:38:41;98261.94;;;36.51;32.41
40872;BME280;26591;43.264;26.940;2023-07-20T11:41:08;98263.06;;;36.66;31.92
40872;BME280;26591;43.264;26.940;2023-07-20T11:43:33;98256.31;;;36.83;32.47
40872;BME280;26591;43.264;26.940;2023-07-20T11:45:59;98244.47;;;37.18;32.91
40872;BME280;26591;43.264;26.940;2023-07-20T11:48:26;98248.53;;;37.05;32.76
40872;BME280;26591;43.264;26.940;2023-07-20T11:50:51;98249.16;;;36.78;32.91
40872;BME280;26591;43.264;26.940;2023-07-20T11:53:17;98233.56;;;36.86;32.60
40872;BME280;26591;43.264;26.940;2023-07-20T11:55:45;98234.56;;;36.78;33.24
40872;BME280;26591;43.264;26.940;2023-07-20T11:58:11;98247.56;;;37.17;32.97
40872;BME280;26591;43.264;26.940;2023-07-20T12:00:38;98237.44;;;36.65;33.75
40872;BME280;26591;43.264;26.940;2023-07-20T12:03:06;98246.56;;;36.34;34.50
40872;BME280;26591;43.264;26.940;2023-07-20T12:05:37;98249.50;;;36.25;33.72
40872;BME280;26591;43.264;26.940;2023-07-20T12:08:03;98235.81;;;36.29;33.82
40872;BME280;26591;43.264;26.940;2023-07-20T12:10:29;98231.06;;;36.61;33.39
40872;BME280;26591;43.264;26.940;2023-07-20T12:13:01;98225.56;;;36.81;33.36
40872;BME280;26591;43.264;26.940;2023-07-20T12:15:28;98219.84;;;36.90;33.37
40872;BME280;26591;43.264;26.940;2023-07-20T12:17:56;98222.09;;;36.13;34.26
40872;BME280;26591;43.264;26.940;2023-07-20T12:20:36;98227.41;;;36.22;34.62
40872;BME280;26591;43.264;26.940;2023-07-20T12:23:04;98225.94;;;36.28;33.71
40872;BME280;26591;43.264;26.940;2023-07-20T12:25:41;98229.25;;;36.17;33.81
40872;BME280;26591;43.264;26.940;2023-07-20T12:28:11;98231.34;;;36.40;33.58
40872;BME280;26591;43.264;26.940;2023-07-20T12:30:43;98226.66;;;36.76;32.59
40872;BME280;26591;43.264;26.940;2023-07-20T12:33:13;98224.78;;;36.80;33.45
40872;BME280;26591;43.264;26.940;2023-07-20T12:35:42;98228.59;;;36.56;34.00
40872;BME280;26591;43.264;26.940;2023-07-20T12:38:11;98224.16;;;36.52;33.73
40872;BME280;26591;43.264;26.940;2023-07-20T12:40:36;98226.00;;;36.83;33.16
40872;BME280;26591;43.264;26.940;2023-07-20T12:43:02;98225.69;;;36.69;33.63
40872;BME280;26591;43.264;26.940;2023-07-20T12:45:29;98227.47;;;36.25;33.88
40872;BME280;26591;43.264;26.940;2023-07-20T12:47:54;98225.44;;;36.22;34.43
40872;BME280;26591;43.264;26.940;2023-07-20T12:50:20;98216.56;;;36.13;35.05
40872;BME280;26591;43.264;26.940;2023-07-20T12:52:45;98218.09;;;36.10;35.04
40872;BME280;26591;43.264;26.940;2023-07-20T12:55:11;98222.50;;;36.47;35.08
40872;BME280;26591;43.264;26.940;2023-07-20T12:57:37;98219.22;;;36.97;34.55
40872;BME280;26591;43.264;26.940;2023-07-20T13:00:04;98213.44;;;36.66;34.29
40872;BME280;26591;43.264;26.940;2023-07-20T13:02:32;98214.19;;;35.95;35.32
40872;BME280;26591;43.264;26.940;2023-07-20T13:04:58;98212.22;;;35.96;35.34
40872;BME280;26591;43.264;26.940;2023-07-20T13:07:31;98218.94;;;35.66;35.58
40872;BME280;26591;43.264;26.940;2023-07-20T13:09:58;98214.06;;;35.92;35.60
40872;BME280;26591;43.264;26.940;2023-07-20T13:12:26;98204.94;;;36.03;34.91
40872;BME280;26591;43.264;26.940;2023-07-20T13:14:52;98199.81;;;36.38;34.82
40872;BME280;26591;43.264;26.940;2023-07-20T13:17:17;98189.63;;;36.22;34.81